createdAt,value
2022-07-28T00:00:58.476Z,100.00
2022-07-28T00:03:25.666Z,100.00
2022-07-28T00:06:12.640Z,100.00
2022-07-28T00:09:13.668Z,100.00
2022-07-28T00:11:55.100Z,100.00
2022-07-28T00:14:22.705Z,100.00
2022-07-28T00:16:49.899Z,100.00
2022-07-28T00:19:16.923Z,100.00
2022-07-28T00:21:44.080Z,100.00
2022-07-28T00:24:11.880Z,100.00
2022-07-28T00:26:39.239Z,100.00
2022-07-28T00:29:06.334Z,100.00
2022-07-28T00:31:33.523Z,100.00
2022-07-28T00:34:00.749Z,100.00
2022-07-28T00:36:28.100Z,100.00
2022-07-28T00:38:55.314Z,100.00
2022-07-28T00:41:23.217Z,100.00
2022-07-28T00:43:52.011Z,100.00
2022-07-28T00:46:20.689Z,100.00
2022-07-28T00:48:49.249Z,100.00
2022-07-28T00:51:17.831Z,100.00
2022-07-28T00:53:45.552Z,100.00
2022-07-28T00:56:12.986Z,100.00
2022-07-28T00:58:40.609Z,100.00
2022-07-28T01:01:28.764Z,100.00
2022-07-28T01:04:09.457Z,100.00
2022-07-28T01:21:15.680Z,100.00
2022-07-28T01:24:18.345Z,100.00
2022-07-28T01:27:01.293Z,100.00
2022-07-28T01:29:35.086Z,100.00
2022-07-28T01:32:07.150Z,100.00
2022-07-28T01:34:42.285Z,100.00
2022-07-28T01:37:17.368Z,100.00
2022-07-28T01:39:45.639Z,100.00
2022-07-28T01:42:13.784Z,100.00
2022-07-28T01:44:42.407Z,100.00
2022-07-28T01:47:10.652Z,100.00
2022-07-28T01:49:38.241Z,100.00
2022-07-28T01:52:07.152Z,100.00
2022-07-28T01:54:37.590Z,100.00
2022-07-28T01:57:06.031Z,100.00
2022-07-28T01:59:36.412Z,100.00
2022-07-28T02:02:04.619Z,100.00
2022-07-28T02:04:33.710Z,100.00
2022-07-28T02:07:02.900Z,100.00
2022-07-28T02:09:30.981Z,100.00
2022-07-28T02:12:18.703Z,100.00
2022-07-28T02:15:23.711Z,100.00
2022-07-28T02:18:05.913Z,100.00
2022-07-28T02:20:33.905Z,100.00
2022-07-28T02:23:01.033Z,100.00
2022-07-28T02:25:30.978Z,100.00
2022-07-28T02:28:06.836Z,100.00
2022-07-28T02:30:37.114Z,100.00
2022-07-28T02:33:08.355Z,100.00
2022-07-28T02:35:37.524Z,100.00
2022-07-28T02:38:12.431Z,100.00
2022-07-28T02:40:40.911Z,100.00
2022-07-28T02:43:13.011Z,100.00
2022-07-28T02:45:41.978Z,100.00
2022-07-28T02:48:12.295Z,100.00
2022-07-28T02:50:42.620Z,100.00
2022-07-28T02:53:15.476Z,100.00
2022-07-28T02:55:46.644Z,100.00
2022-07-28T02:58:14.678Z,100.00
2022-07-28T03:01:02.766Z,100.00
2022-07-28T03:04:03.702Z,100.00
2022-07-28T03:06:36.058Z,100.00
2022-07-28T03:09:22.695Z,100.00
2022-07-28T03:12:03.486Z,100.00
2022-07-28T03:14:30.418Z,100.00
2022-07-28T03:16:57.267Z,100.00
2022-07-28T03:19:24.341Z,100.00
2022-07-28T03:21:53.073Z,100.00
2022-07-28T03:24:21.092Z,100.00
2022-07-28T03:26:53.968Z,100.00
2022-07-28T03:29:21.025Z,100.00
2022-07-28T03:31:48.491Z,100.00
2022-07-28T03:34:15.914Z,100.00
2022-07-28T03:36:45.620Z,100.00
2022-07-28T03:39:32.804Z,100.00
2022-07-28T03:42:33.735Z,100.00
2022-07-28T03:45:15.797Z,100.00
2022-07-28T03:47:49.488Z,100.00
2022-07-28T03:50:16.555Z,100.00
2022-07-28T03:52:43.507Z,100.00
2022-07-28T03:55:12.325Z,100.00
2022-07-28T03:57:39.293Z,100.00
2022-07-28T04:00:09.749Z,100.00
2022-07-28T04:02:43.940Z,100.00
2022-07-28T04:05:12.167Z,100.00
2022-07-28T04:07:39.690Z,100.00
2022-07-28T04:10:07.963Z,100.00
2022-07-28T04:13:04.754Z,100.00
2022-07-28T04:15:45.311Z,100.00
2022-07-28T04:18:12.243Z,100.00
2022-07-28T04:20:39.093Z,100.00
2022-07-28T04:23:05.976Z,100.00
2022-07-28T04:25:32.782Z,100.00
2022-07-28T04:27:59.542Z,100.00
2022-07-28T04:30:27.895Z,100.00
2022-07-28T04:32:55.254Z,100.00
2022-07-28T04:35:27.316Z,100.00
2022-07-28T04:38:01.182Z,100.00
2022-07-28T04:40:28.147Z,100.00
2022-07-28T04:42:55.566Z,100.00
2022-07-28T04:45:22.847Z,99.31
2022-07-28T04:47:49.798Z,99.85
2022-07-28T04:50:36.785Z,100.00
2022-07-28T04:53:38.796Z,100.00
2022-07-28T04:56:19.168Z,98.03
2022-07-28T04:58:45.996Z,94.73
2022-07-28T05:01:14.773Z,93.30
2022-07-28T05:03:41.693Z,90.02
2022-07-28T05:06:08.624Z,88.79
2022-07-28T05:08:35.456Z,86.23
2022-07-28T05:11:02.338Z,84.93
2022-07-28T05:13:33.779Z,86.44
2022-07-28T05:16:01.804Z,85.51
2022-07-28T05:18:28.753Z,84.34
2022-07-28T05:21:08.788Z,83.12
2022-07-28T05:23:49.358Z,78.01
2022-07-28T05:26:16.237Z,76.56
2022-07-28T05:28:43.155Z,77.43
2022-07-28T05:31:10.493Z,77.79
2022-07-28T05:33:37.378Z,75.53
2022-07-28T05:36:04.328Z,76.28
2022-07-28T05:38:31.580Z,76.87
2022-07-28T05:40:59.337Z,73.37
2022-07-28T05:43:26.298Z,71.88
2022-07-28T05:46:13.841Z,70.82
2022-07-28T05:49:14.892Z,73.14
2022-07-28T05:51:55.363Z,67.35
2022-07-28T05:54:22.269Z,67.75
2022-07-28T05:56:50.358Z,66.79
2022-07-28T05:59:17.303Z,65.13
2022-07-28T06:01:44.270Z,62.06
2022-07-28T06:04:32.092Z,59.51
2022-07-28T06:07:43.789Z,60.01
2022-07-28T06:10:25.673Z,61.53
2022-07-28T06:12:54.107Z,62.29
2022-07-28T06:15:22.285Z,60.98
2022-07-28T06:17:52.786Z,61.43
2022-07-28T06:20:39.874Z,59.42
2022-07-28T06:23:21.793Z,57.76
2022-07-28T06:25:49.225Z,59.56
2022-07-28T06:28:16.137Z,60.23
2022-07-28T06:30:43.107Z,60.21
2022-07-28T06:33:12.758Z,57.55
2022-07-28T06:35:48.276Z,58.48
2022-07-28T06:38:19.568Z,56.94
2022-07-28T06:40:47.149Z,56.52
2022-07-28T06:43:14.788Z,55.20
2022-07-28T06:45:41.926Z,56.69
2022-07-28T06:48:08.952Z,56.39
2022-07-28T06:50:36.479Z,57.41
2022-07-28T06:53:03.332Z,56.29
2022-07-28T06:55:35.368Z,56.85
2022-07-28T06:58:03.471Z,61.08
2022-07-28T07:00:30.438Z,58.84
2022-07-28T07:02:57.273Z,58.54
2022-07-28T07:05:57.920Z,57.53
2022-07-28T07:08:58.882Z,54.62
2022-07-28T07:11:39.560Z,51.18
2022-07-28T07:14:06.529Z,51.85
2022-07-28T07:16:34.577Z,51.23
2022-07-28T07:19:21.873Z,53.96
2022-07-28T07:22:03.856Z,55.66
2022-07-28T07:24:30.811Z,53.93
2022-07-28T07:26:57.745Z,51.10
2022-07-28T07:29:24.641Z,50.86
2022-07-28T07:31:52.928Z,48.98
2022-07-28T07:34:20.490Z,49.10
2022-07-28T07:36:47.378Z,48.54
2022-07-28T07:39:14.257Z,49.47
2022-07-28T07:41:41.197Z,47.23
2022-07-28T07:44:27.881Z,51.38
2022-07-28T07:47:09.423Z,51.40
2022-07-28T07:49:56.898Z,52.73
2022-07-28T07:52:57.900Z,52.68
2022-07-28T07:55:58.907Z,55.30
2022-07-28T07:58:39.415Z,51.20
2022-07-28T08:01:06.279Z,49.76
2022-07-28T08:03:53.723Z,48.98
2022-07-28T08:06:34.312Z,49.37
2022-07-28T08:09:03.216Z,50.79
2022-07-28T08:11:31.809Z,50.50
2022-07-28T08:14:04.843Z,51.90
2022-07-28T08:16:40.994Z,53.46
2022-07-28T08:19:08.736Z,49.80
2022-07-28T08:21:36.069Z,49.64
2022-07-28T08:24:06.713Z,50.79
2022-07-28T08:26:38.931Z,52.07
2022-07-28T08:29:06.221Z,53.39
2022-07-28T08:31:40.284Z,54.93
2022-07-28T08:34:31.074Z,53.14
2022-07-28T08:37:10.403Z,53.44
2022-07-28T08:39:44.602Z,53.62
2022-07-28T08:42:45.443Z,52.74
2022-07-28T08:45:20.990Z,57.81
2022-07-28T08:48:07.887Z,53.81
2022-07-28T08:51:00.020Z,50.80
2022-07-28T08:54:01.913Z,48.83
2022-07-28T08:56:48.291Z,47.32
2022-07-28T08:59:15.368Z,49.44
2022-07-28T09:02:02.968Z,51.82
2022-07-28T09:05:03.978Z,52.02
2022-07-28T09:08:05.915Z,50.86
2022-07-28T09:10:47.030Z,51.21
2022-07-28T09:13:14.281Z,53.06
2022-07-28T09:15:41.492Z,53.61
2022-07-28T09:18:08.532Z,53.30
2022-07-28T09:20:38.978Z,51.67
2022-07-28T09:23:42.105Z,54.16
2022-07-28T09:26:10.258Z,52.77
2022-07-28T09:28:52.000Z,51.60
2022-07-28T09:31:39.028Z,51.71
2022-07-28T09:34:19.514Z,49.67
2022-07-28T09:36:46.472Z,51.77
2022-07-28T09:39:27.680Z,51.27
2022-07-28T09:41:57.935Z,50.35
2022-07-28T09:44:26.308Z,49.48
2022-07-28T09:46:53.474Z,48.87
2022-07-28T09:49:23.960Z,48.01
2022-07-28T09:52:16.000Z,47.98
2022-07-28T09:55:26.031Z,48.68
2022-07-28T09:58:09.781Z,51.33
2022-07-28T10:00:37.914Z,52.42
2022-07-28T10:03:24.973Z,51.24
2022-07-28T10:06:28.001Z,51.47
2022-07-28T10:09:39.017Z,51.25
2022-07-28T10:12:30.839Z,51.50
2022-07-28T10:15:34.841Z,49.79
2022-07-28T10:18:01.988Z,50.82
2022-07-28T10:20:29.097Z,51.90
2022-07-28T10:22:58.915Z,50.29
2022-07-28T10:25:27.435Z,48.24
2022-07-28T10:27:55.045Z,46.37
2022-07-28T10:30:21.948Z,48.69
2022-07-28T10:32:48.927Z,50.97
2022-07-28T10:35:16.860Z,49.86
2022-07-28T10:37:48.011Z,48.70
2022-07-28T10:40:32.228Z,50.27
2022-07-28T10:43:12.992Z,50.33
2022-07-28T10:46:04.325Z,50.51
2022-07-28T10:48:27.341Z,49.39
2022-07-28T10:51:14.009Z,50.72
2022-07-28T10:53:57.253Z,50.98
2022-07-28T10:56:36.519Z,50.78
2022-07-28T10:59:45.991Z,49.55
2022-07-28T11:03:02.187Z,49.47
2022-07-28T11:06:34.005Z,49.20
2022-07-28T11:09:36.027Z,50.38
2022-07-28T11:12:40.830Z,49.50
2022-07-28T11:15:25.081Z,47.63
2022-07-28T11:18:23.029Z,47.70
2022-07-28T11:21:03.598Z,46.77
2022-07-28T11:23:47.798Z,47.33
2022-07-28T11:26:21.181Z,50.31
2022-07-28T11:28:57.297Z,50.11
2022-07-28T11:31:42.880Z,51.66
2022-07-28T11:34:19.876Z,51.63
2022-07-28T11:37:06.523Z,50.28
2022-07-28T11:39:43.252Z,49.55
2022-07-28T11:42:31.145Z,50.19
2022-07-28T11:45:17.937Z,47.71
2022-07-28T11:47:44.772Z,46.93
2022-07-28T11:50:32.017Z,46.77
2022-07-28T11:53:13.404Z,47.46
2022-07-28T11:55:49.216Z,45.83
2022-07-28T11:58:26.242Z,45.68
2022-07-28T12:01:18.139Z,48.34
2022-07-28T12:04:06.055Z,44.84
2022-07-28T12:07:11.057Z,47.25
2022-07-28T12:10:21.501Z,48.48
2022-07-28T12:13:12.202Z,45.37
2022-07-28T12:15:39.046Z,45.21
2022-07-28T12:18:10.792Z,45.03
2022-07-28T12:20:44.443Z,47.38
2022-07-28T12:23:15.442Z,43.39
2022-07-28T12:25:47.149Z,43.48
2022-07-28T12:28:22.694Z,46.29
2022-07-28T12:30:51.921Z,46.28
2022-07-28T12:33:20.061Z,44.72
2022-07-28T12:35:48.470Z,44.63
2022-07-28T12:38:15.526Z,46.34
2022-07-28T12:40:43.143Z,45.83
2022-07-28T12:43:10.027Z,43.38
2022-07-28T12:45:46.357Z,43.77
2022-07-28T12:48:18.792Z,42.14
2022-07-28T12:51:06.099Z,42.34
2022-07-28T12:53:51.828Z,42.34
2022-07-28T12:56:39.080Z,45.87
2022-07-28T12:59:20.498Z,47.05
2022-07-28T13:01:54.740Z,47.32
2022-07-28T13:04:52.104Z,51.40
2022-07-28T13:07:54.093Z,46.36
2022-07-28T13:11:01.135Z,46.32
2022-07-28T13:13:53.200Z,46.04
2022-07-28T13:16:20.866Z,44.83
2022-07-28T13:18:58.590Z,44.94
2022-07-28T13:21:57.198Z,47.33
2022-07-28T13:24:27.796Z,48.22
2022-07-28T13:26:54.903Z,47.04
2022-07-28T13:29:42.104Z,46.16
2022-07-28T13:32:22.760Z,45.32
2022-07-28T13:34:49.684Z,44.76
2022-07-28T13:37:16.836Z,43.74
2022-07-28T13:39:43.902Z,44.05
2022-07-28T13:42:10.683Z,44.35
2022-07-28T13:44:40.120Z,43.37
2022-07-28T13:47:27.117Z,42.55
2022-07-28T13:50:36.192Z,41.97
2022-07-28T13:53:16.568Z,41.88
2022-07-28T13:55:44.212Z,41.55
2022-07-28T13:58:10.997Z,44.03
2022-07-28T14:00:37.982Z,44.11
2022-07-28T14:03:25.242Z,44.12
2022-07-28T14:06:12.376Z,45.96
2022-07-28T14:09:04.282Z,44.67
2022-07-28T14:11:49.312Z,50.74
2022-07-28T14:14:19.958Z,47.64
2022-07-28T14:16:48.024Z,47.02
2022-07-28T14:19:16.621Z,46.38
2022-07-28T14:21:50.585Z,46.58
2022-07-28T14:24:17.834Z,47.19
2022-07-28T14:26:44.953Z,46.60
2022-07-28T14:29:32.161Z,48.04
2022-07-28T14:32:33.180Z,47.29
2022-07-28T14:35:14.001Z,47.32
2022-07-28T14:38:11.587Z,46.59
2022-07-28T14:40:27.731Z,46.62
2022-07-28T14:42:54.622Z,47.34
2022-07-28T14:45:21.491Z,47.02
2022-07-28T14:47:48.501Z,47.44
2022-07-28T14:50:15.236Z,47.66
2022-07-28T14:52:45.134Z,46.39
2022-07-28T14:55:12.706Z,46.00
2022-07-28T14:57:48.159Z,47.15
2022-07-28T15:00:19.592Z,47.08
2022-07-28T15:02:47.822Z,47.35
2022-07-28T15:05:35.203Z,49.29
2022-07-28T15:08:36.203Z,46.79
2022-07-28T15:11:16.741Z,48.53
2022-07-28T15:14:04.174Z,49.55
2022-07-28T15:16:44.837Z,48.22
2022-07-28T15:19:12.260Z,48.22
2022-07-28T15:21:40.888Z,48.93
2022-07-28T15:24:08.868Z,48.47
2022-07-28T15:26:35.853Z,46.77
2022-07-28T15:29:23.292Z,44.77
2022-07-28T15:32:28.153Z,46.67
2022-07-28T15:35:19.834Z,47.34
2022-07-28T15:37:46.639Z,48.46
2022-07-28T15:40:13.488Z,50.42
2022-07-28T15:42:40.350Z,51.27
2022-07-28T15:45:14.797Z,50.36
2022-07-28T15:48:02.216Z,49.15
2022-07-28T15:50:45.513Z,48.82
2022-07-28T15:53:12.446Z,48.01
2022-07-28T15:55:39.501Z,48.32
2022-07-28T15:58:06.383Z,47.95
2022-07-28T16:00:33.873Z,48.83
2022-07-28T16:03:01.555Z,49.29
2022-07-28T16:06:02.250Z,50.78
2022-07-28T16:08:58.236Z,49.38
2022-07-28T16:11:39.699Z,49.85
2022-07-28T16:14:06.538Z,49.90
2022-07-28T16:16:53.248Z,48.72
2022-07-28T16:19:48.561Z,48.08
2022-07-28T16:22:16.706Z,49.22
2022-07-28T16:24:43.759Z,48.91
2022-07-28T16:27:10.564Z,50.11
2022-07-28T16:29:57.249Z,49.78
2022-07-28T16:32:42.045Z,48.84
2022-07-28T16:35:10.039Z,49.05
2022-07-28T16:37:37.094Z,50.48
2022-07-28T16:40:04.149Z,50.39
2022-07-28T16:42:31.711Z,49.18
2022-07-28T16:44:58.515Z,51.30
2022-07-28T16:47:25.394Z,51.62
2022-07-28T16:49:52.345Z,51.80
2022-07-28T16:52:39.291Z,52.34
2022-07-28T16:55:40.292Z,54.97
2022-07-28T16:58:23.264Z,55.69
2022-07-28T17:00:50.723Z,54.57
2022-07-28T17:03:38.264Z,54.43
2022-07-28T17:06:18.753Z,55.38
2022-07-28T17:09:06.261Z,54.34
2022-07-28T17:11:46.757Z,54.78
2022-07-28T17:14:13.925Z,55.34
2022-07-28T17:16:41.055Z,56.39
2022-07-28T17:19:28.320Z,55.57
2022-07-28T17:22:14.673Z,55.80
2022-07-28T17:24:41.438Z,56.42
2022-07-28T17:29:55.309Z,58.68
2022-07-28T17:32:22.119Z,58.54
2022-07-28T17:34:48.966Z,58.64
2022-07-28T17:37:15.807Z,57.96
2022-07-28T17:39:42.606Z,57.79
2022-07-28T17:42:09.521Z,58.92
2022-07-28T17:44:36.294Z,59.61
2022-07-28T17:47:03.850Z,59.33
2022-07-28T17:49:30.773Z,60.06
2022-07-28T17:51:57.667Z,61.75
2022-07-28T17:54:25.076Z,62.28
2022-07-28T17:56:52.274Z,63.35
2022-07-28T17:59:19.076Z,63.42
2022-07-28T18:01:45.942Z,65.02
2022-07-28T18:04:33.315Z,64.87
2022-07-28T18:07:50.097Z,64.85
2022-07-28T18:10:57.324Z,66.19
2022-07-28T18:13:39.982Z,67.12
2022-07-28T18:16:30.349Z,67.23
2022-07-28T18:19:10.913Z,67.38
2022-07-28T18:21:37.658Z,68.58
2022-07-28T18:24:10.069Z,69.84
2022-07-28T18:26:36.883Z,70.74
2022-07-28T18:29:03.665Z,72.12
2022-07-28T18:31:50.469Z,72.58
2022-07-28T18:34:30.815Z,73.92
2022-07-28T18:36:59.556Z,73.83
2022-07-28T18:39:26.374Z,73.91
2022-07-28T18:41:56.479Z,74.85
2022-07-28T18:44:23.244Z,75.26
2022-07-28T18:47:10.322Z,75.99
2022-07-28T18:49:50.737Z,77.70
2022-07-28T18:52:17.576Z,78.19
2022-07-28T18:55:04.338Z,78.45
2022-07-28T18:58:05.348Z,79.10
2022-07-28T19:01:10.549Z,78.52
2022-07-28T19:04:14.543Z,79.02
2022-07-28T19:07:15.325Z,81.86
2022-07-28T19:10:16.372Z,80.34
2022-07-28T19:12:56.785Z,81.14
2022-07-28T19:15:23.672Z,81.74
2022-07-28T19:18:09.767Z,82.76
2022-07-28T19:20:37.320Z,83.41
2022-07-28T19:23:05.490Z,82.73
2022-07-28T19:25:32.906Z,81.80
2022-07-28T19:27:59.633Z,80.48
2022-07-28T19:30:46.529Z,79.25
2022-07-28T19:33:26.789Z,79.89
2022-07-28T19:35:54.168Z,79.81
2022-07-28T19:38:20.936Z,80.03
2022-07-28T19:40:47.791Z,79.68
2022-07-28T19:43:14.508Z,80.62
2022-07-28T19:45:41.519Z,81.88
2022-07-28T19:48:08.409Z,83.09
2022-07-28T19:50:36.310Z,83.29
2022-07-28T19:53:03.447Z,82.94
2022-07-28T19:55:33.487Z,83.93
2022-07-28T19:58:00.345Z,84.70
2022-07-28T20:00:47.399Z,84.87
2022-07-28T20:04:01.646Z,84.76
2022-07-28T20:07:05.401Z,84.72
2022-07-28T20:10:07.401Z,83.33
2022-07-28T20:12:48.532Z,82.65
2022-07-28T20:15:15.629Z,83.85
2022-07-28T20:17:42.445Z,85.27
2022-07-28T20:20:10.192Z,87.46
2022-07-28T20:22:39.938Z,89.94
2022-07-28T20:25:09.435Z,91.57
2022-07-28T20:27:40.711Z,95.73
2022-07-28T20:30:28.479Z,99.79
2022-07-28T20:33:29.421Z,100.00
2022-07-28T20:36:13.002Z,100.00
2022-07-28T20:39:00.437Z,100.00
2022-07-28T20:41:42.128Z,100.00
2022-07-28T20:44:29.438Z,100.00
2022-07-28T20:46:58.421Z,100.00
2022-07-28T20:49:25.278Z,100.00
2022-07-28T20:51:52.073Z,100.00
2022-07-28T20:54:19.105Z,100.00
2022-07-28T20:56:45.863Z,100.00
2022-07-28T20:59:13.427Z,100.00
2022-07-28T21:02:00.494Z,100.00
2022-07-28T21:05:01.460Z,100.00
2022-07-28T21:08:06.464Z,100.00
2022-07-28T21:11:10.447Z,100.00
2022-07-28T21:13:52.983Z,100.00
2022-07-28T21:16:19.775Z,100.00
2022-07-28T21:18:46.538Z,100.00
2022-07-28T21:21:13.493Z,100.00
2022-07-28T21:23:40.433Z,100.00
2022-07-28T21:26:08.628Z,100.00
2022-07-28T21:28:54.097Z,100.00
2022-07-28T21:31:21.177Z,100.00
2022-07-28T21:33:47.891Z,100.00
2022-07-28T21:36:35.427Z,100.00
2022-07-28T21:39:15.939Z,99.04
2022-07-28T21:41:43.320Z,99.17
2022-07-28T21:44:10.193Z,98.04
2022-07-28T21:46:38.965Z,98.25
2022-07-28T21:49:06.347Z,97.00
2022-07-28T21:51:33.332Z,98.65
2022-07-28T21:54:00.312Z,97.92
2022-07-28T21:56:27.747Z,98.49
2022-07-28T21:58:54.613Z,98.70
2022-07-28T22:01:43.535Z,100.00
2022-07-28T22:04:44.520Z,100.00
2022-07-28T22:07:25.059Z,100.00
2022-07-28T22:10:12.454Z,100.00
2022-07-28T22:12:52.957Z,100.00
2022-07-28T22:15:19.780Z,99.18
2022-07-28T22:18:06.453Z,97.60
2022-07-28T22:21:07.479Z,96.31
2022-07-28T22:23:47.858Z,96.20
2022-07-28T22:26:14.596Z,96.46
2022-07-28T22:28:41.356Z,95.63
2022-07-28T22:31:10.138Z,93.11
2022-07-28T22:33:50.466Z,91.92
2022-07-28T22:36:44.978Z,90.07
2022-07-28T22:39:32.494Z,88.94
2022-07-28T22:42:13.017Z,88.44
2022-07-28T22:44:39.876Z,88.35
2022-07-28T22:47:07.063Z,88.31
2022-07-28T22:49:54.493Z,88.11
2022-07-28T22:52:35.582Z,87.17
2022-07-28T22:57:47.229Z,86.44
2022-07-28T23:00:14.260Z,88.19
2022-07-28T23:02:42.160Z,89.74
2022-07-28T23:05:12.246Z,90.98
2022-07-28T23:07:59.566Z,92.92
2022-07-28T23:10:45.059Z,92.45
2022-07-28T23:13:11.935Z,91.64
2022-07-28T23:15:58.651Z,91.57
2022-07-28T23:18:40.171Z,90.74
2022-07-28T23:21:27.622Z,91.45
2022-07-28T23:24:28.611Z,91.28
2022-07-28T23:27:09.032Z,92.10
2022-07-28T23:29:36.012Z,92.09
2022-07-28T23:32:03.054Z,92.32
2022-07-28T23:34:30.016Z,93.87
2022-07-28T23:36:56.913Z,94.27
2022-07-28T23:39:23.797Z,96.36
2022-07-28T23:41:50.752Z,95.23
2022-07-28T23:44:17.862Z,94.19
2022-07-28T23:46:45.227Z,92.62
2022-07-28T23:49:13.676Z,92.49
2022-07-28T23:51:47.753Z,90.56
2022-07-28T23:54:35.594Z,89.93
2022-07-28T23:57:15.981Z,89.97
2022-07-28T23:59:42.929Z,91.39
